Time;durP1;ratioP1;P1;durP2;ratioP2;P2;SDS_P1;SDS_P2;PMS_P1;PMS_P2;Temp;Humidity;BMP_temperature;BMP_pressure;BME280_temperature;BME280_humidity;BME280_pressure;Samples;Min_cycle;Max_cycle;Signal;HPM_P1;HPM_P2
2022/01/03 00:00:19;;;;;;;1.63;0.70;;;12.70;99.90;;;;;;5057121;28;20953;-83
2022/01/03 00:02:48;;;;;;;1.43;0.87;;;12.70;99.90;;;;;;5069376;28;20466;-83
2022/01/03 00:05:16;;;;;;;4.73;1.03;;;12.80;99.90;;;;;;5054773;28;20914;-83
2022/01/03 00:07:47;;;;;;;0.70;0.50;;;12.80;99.90;;;;;;5049058;28;20462;-83
2022/01/03 00:10:18;;;;;;;1.83;0.90;;;13.00;99.90;;;;;;5056697;28;20463;-83
2022/01/03 00:12:47;;;;;;;1.20;0.70;;;13.20;99.90;;;;;;5071508;28;20957;-82
2022/01/03 00:15:17;;;;;;;1.87;0.70;;;13.10;99.90;;;;;;5052676;28;20457;-83
2022/01/03 00:17:48;;;;;;;1.30;0.80;;;13.10;99.90;;;;;;5052791;28;20502;-82
2022/01/03 00:20:17;;;;;;;5.00;0.90;;;13.10;99.90;;;;;;5053330;28;20451;-83
2022/01/03 00:22:51;;;;;;;2.30;0.90;;;13.20;99.90;;;;;;5056285;28;20466;-82
2022/01/03 00:25:22;;;;;;;0.80;0.67;;;13.10;99.90;;;;;;5072765;28;20457;-83
2022/01/03 00:27:58;;;;;;;0.73;0.70;;;13.00;99.90;;;;;;5064839;28;20467;-82
2022/01/03 00:30:27;;;;;;;1.00;1.00;;;13.10;99.90;;;;;;5052841;28;20464;-83
2022/01/03 00:32:56;;;;;;;1.73;0.70;;;13.10;99.90;;;;;;5052693;28;21093;-83
2022/01/03 00:35:24;;;;;;;1.80;1.70;;;13.00;99.90;;;;;;5052955;28;20451;-82
2022/01/03 00:37:54;;;;;;;1.20;0.67;;;13.00;99.90;;;;;;5058856;28;20473;-82
2022/01/03 00:40:22;;;;;;;7.33;0.80;;;13.00;99.90;;;;;;5060867;28;20450;-83
2022/01/03 00:42:51;;;;;;;2.20;0.90;;;13.00;99.90;;;;;;5052605;28;20471;-82
2022/01/03 00:45:19;;;;;;;0.90;0.60;;;13.00;99.90;;;;;;5063740;28;20485;-82
2022/01/03 00:47:49;;;;;;;1.57;0.73;;;13.00;99.90;;;;;;5070419;28;20508;-83
2022/01/03 00:50:21;;;;;;;6.63;0.97;;;12.90;99.90;;;;;;5058619;28;20648;-83
2022/01/03 00:52:50;;;;;;;3.70;0.70;;;12.80;99.90;;;;;;5052150;28;20477;-83
2022/01/03 00:55:20;;;;;;;1.60;0.60;;;12.80;99.90;;;;;;5050810;28;20443;-82
2022/01/03 00:57:59;;;;;;;1.37;0.90;;;12.90;99.90;;;;;;5065700;28;20482;-81
2022/01/03 01:00:30;;;;;;;0.90;0.70;;;12.90;99.90;;;;;;5056829;28;20966;-83
2022/01/03 01:03:10;;;;;;;1.60;0.60;;;13.00;99.90;;;;;;5052100;28;20514;-82
2022/01/03 01:05:40;;;;;;;1.90;0.60;;;12.80;99.90;;;;;;5052034;28;20447;-83
2022/01/03 01:08:08;;;;;;;2.47;0.80;;;12.90;99.90;;;;;;5051784;28;20447;-83
2022/01/03 01:10:40;;;;;;;1.20;0.70;;;12.80;99.90;;;;;;5051984;28;20452;-82
2022/01/03 01:13:11;;;;;;;1.07;0.63;;;12.80;99.90;;;;;;5059720;28;20482;-83
2022/01/03 01:15:39;;;;;;;2.77;0.90;;;12.90;99.90;;;;;;5051452;28;20498;-82
2022/01/03 01:18:07;;;;;;;2.13;0.80;;;13.00;99.90;;;;;;5051645;28;20474;-82
2022/01/03 01:20:40;;;;;;;2.07;1.00;;;13.00;99.90;;;;;;5052048;28;20453;-82
2022/01/03 01:23:09;;;;;;;3.03;0.70;;;12.70;99.90;;;;;;5050105;28;20554;-83
2022/01/03 01:28:25;;;;;;;6.13;0.83;;;12.70;99.90;;;;;;5056680;28;21219;-83
2022/01/03 01:30:57;;;;;;;0.93;0.60;;;12.80;99.90;;;;;;5071021;28;20447;-83
2022/01/03 01:33:30;;;;;;;4.10;0.70;;;12.90;99.90;;;;;;5052205;28;20471;-82
2022/01/03 01:36:13;;;;;;;1.60;0.60;;;13.00;99.90;;;;;;5051242;28;20454;-82
2022/01/03 01:38:49;;;;;;;1.20;0.80;;;12.90;99.90;;;;;;5051300;28;20450;-83
2022/01/03 01:41:20;;;;;;;1.30;0.70;;;12.90;99.90;;;;;;5051439;28;20966;-82
2022/01/03 01:43:50;;;;;;;0.93;0.80;;;13.00;99.90;;;;;;5060892;28;20473;-82
2022/01/03 01:46:21;;;;;;;2.20;0.63;;;13.00;99.90;;;;;;5071118;28;20459;-82
2022/01/03 01:48:50;;;;;;;3.60;0.80;;;13.00;99.90;;;;;;5070412;28;20963;-83
2022/01/03 01:51:21;;;;;;;0.90;0.77;;;13.00;99.90;;;;;;5054717;28;20447;-83
2022/01/03 01:53:51;;;;;;;0.80;0.80;;;12.80;99.90;;;;;;5050977;28;20470;-83
2022/01/03 01:56:23;;;;;;;1.60;0.60;;;13.00;99.90;;;;;;5066393;28;20465;-82
2022/01/03 01:59:09;;;;;;;0.60;0.60;;;12.90;99.90;;;;;;5070895;28;20450;-83
2022/01/03 02:01:55;;;;;;;0.90;0.73;;;12.90;99.90;;;;;;5071099;28;21134;-83
2022/01/03 02:04:35;;;;;;;1.90;0.87;;;13.10;99.90;;;;;;5057825;28;20474;-82
2022/01/03 02:07:26;;;;;;;1.37;0.80;;;13.30;99.90;;;;;;5049555;28;20444;-82
2022/01/03 02:10:05;;;;;;;1.47;0.80;;;13.30;99.90;;;;;;5056193;28;20469;-83
2022/01/03 02:12:38;;;;;;;0.60;0.60;;;13.40;99.90;;;;;;5057404;28;20546;-83
2022/01/03 02:15:11;;;;;;;1.60;0.70;;;13.30;99.90;;;;;;5063013;28;20448;-82
2022/01/03 02:17:40;;;;;;;1.67;0.60;;;13.20;99.90;;;;;;5065326;28;20449;-82
2022/01/03 02:20:12;;;;;;;1.90;0.60;;;13.10;99.90;;;;;;5070287;28;20443;-82
2022/01/03 02:22:43;;;;;;;2.03;0.77;;;12.90;99.90;;;;;;5052884;28;20487;-84
2022/01/03 02:25:13;;;;;;;2.87;1.00;;;13.20;99.90;;;;;;5050415;28;20482;-82
2022/01/03 02:27:44;;;;;;;2.33;0.80;;;13.30;99.90;;;;;;5072410;28;20461;-82
2022/01/03 02:30:15;;;;;;;3.17;0.80;;;13.30;99.90;;;;;;5050517;28;20440;-82
2022/01/03 02:32:44;;;;;;;2.07;0.67;;;13.20;99.90;;;;;;5050229;28;20486;-82
2022/01/03 02:35:13;;;;;;;2.40;0.60;;;13.10;99.90;;;;;;5049846;28;21022;-83
2022/01/03 02:37:44;;;;;;;3.23;0.70;;;13.20;99.90;;;;;;5063565;28;20986;-82
2022/01/03 02:40:14;;;;;;;1.70;0.70;;;13.20;99.90;;;;;;5068284;28;20542;-83
2022/01/03 02:42:43;;;;;;;1.17;0.77;;;13.20;99.90;;;;;;5069722;28;20482;-83
2022/01/03 02:45:15;;;;;;;2.80;0.70;;;13.10;99.90;;;;;;5070368;28;20479;-82
2022/01/03 02:47:46;;;;;;;0.87;0.60;;;13.10;99.90;;;;;;5065554;28;20530;-82
2022/01/03 02:50:18;;;;;;;0.70;0.70;;;12.90;99.90;;;;;;5061927;28;20439;-82
2022/01/03 02:52:47;;;;;;;1.17;0.70;;;12.80;99.90;;;;;;5051270;28;20471;-82
2022/01/03 02:55:17;;;;;;;2.60;0.70;;;12.90;99.90;;;;;;5050858;28;20466;-83
2022/01/03 02:57:48;;;;;;;1.00;0.70;;;13.00;99.90;;;;;;5065481;28;20451;-83
2022/01/03 03:00:21;;;;;;;1.93;0.80;;;13.00;99.90;;;;;;5050236;28;20448;-82
2022/01/03 03:02:49;;;;;;;1.90;0.70;;;12.80;99.90;;;;;;5049932;28;20484;-83
2022/01/03 03:05:19;;;;;;;5.30;0.90;;;12.70;99.90;;;;;;5049718;28;20986;-82
2022/01/03 03:07:48;;;;;;;0.77;0.60;;;12.50;99.90;;;;;;5049437;28;20886;-83
2022/01/03 03:10:18;;;;;;;1.33;0.70;;;12.50;99.90;;;;;;5050283;28;20453;-82
2022/01/03 03:12:48;;;;;;;1.10;1.00;;;12.50;99.90;;;;;;5055330;28;20519;-83
2022/01/03 03:15:17;;;;;;;3.63;0.70;;;12.70;99.90;;;;;;5049420;28;20816;-82
2022/01/03 03:17:47;;;;;;;0.70;0.70;;;12.90;99.90;;;;;;5049936;28;20450;-83
2022/01/03 03:20:18;;;;;;;1.20;0.70;;;12.60;99.90;;;;;;5048351;28;20474;-83
2022/01/03 03:22:49;;;;;;;0.90;0.60;;;12.60;99.90;;;;;;5049164;28;20478;-82
2022/01/03 03:25:20;;;;;;;1.07;0.57;;;12.60;99.90;;;;;;5049969;28;20483;-82
2022/01/03 03:27:50;;;;;;;0.73;0.57;;;12.80;99.90;;;;;;5057634;28;20452;-83
2022/01/03 03:30:21;;;;;;;1.37;0.60;;;12.80;99.90;;;;;;5054230;28;20907;-83
2022/01/03 03:32:51;;;;;;;0.70;0.60;;;12.90;99.90;;;;;;5048353;28;20475;-83
2022/01/03 03:35:21;;;;;;;0.50;0.50;;;12.80;99.90;;;;;;5049667;28;20466;-83
2022/01/03 03:37:50;;;;;;;1.57;0.90;;;12.90;99.90;;;;;;5058848;28;20458;-83
2022/01/03 03:40:19;;;;;;;2.10;0.63;;;12.80;99.90;;;;;;5069860;28;20466;-82
2022/01/03 03:42:47;;;;;;;1.97;0.60;;;12.90;99.90;;;;;;5069355;28;21302;-83
2022/01/03 03:45:15;;;;;;;0.80;0.80;;;12.80;99.90;;;;;;5069233;28;20478;-83
2022/01/03 03:47:44;;;;;;;2.20;0.70;;;12.90;99.90;;;;;;5060782;28;20847;-83
2022/01/03 03:50:12;;;;;;;1.80;0.87;;;13.00;99.90;;;;;;5069169;28;20445;-83
2022/01/03 03:52:40;;;;;;;1.93;0.67;;;13.00;99.90;;;;;;5063175;28;20476;-83
2022/01/03 03:55:11;;;;;;;2.17;0.70;;;13.10;99.90;;;;;;5052961;28;20452;-82
2022/01/03 03:57:39;;;;;;;4.57;1.07;;;13.10;99.90;;;;;;5052927;28;20458;-82
2022/01/03 04:00:10;;;;;;;6.57;0.90;;;13.00;99.90;;;;;;5070279;28;20458;-83
2022/01/03 04:02:38;;;;;;;2.60;0.70;;;12.90;99.90;;;;;;5062343;28;20477;-83
2022/01/03 04:05:08;;;;;;;1.70;1.10;;;12.80;99.90;;;;;;5058350;28;20456;-83
2022/01/03 04:07:36;;;;;;;1.10;0.53;;;12.80;99.90;;;;;;5052349;28;20966;-83
2022/01/03 04:10:05;;;;;;;1.23;0.60;;;12.80;99.90;;;;;;5053396;28;20466;-82
2022/01/03 04:12:35;;;;;;;2.00;0.60;;;12.90;99.90;;;;;;5057802;28;20473;-82
2022/01/03 04:15:05;;;;;;;3.17;1.00;;;13.10;99.90;;;;;;5060500;28;20466;-83
2022/01/03 04:17:33;;;;;;;3.37;1.10;;;13.10;99.90;;;;;;5052652;28;20454;-82
2022/01/03 04:20:01;;;;;;;3.20;0.90;;;13.00;99.90;;;;;;5052701;28;20474;-82
2022/01/03 04:22:30;;;;;;;1.13;0.70;;;12.90;99.90;;;;;;5071076;28;20474;-83
2022/01/03 04:24:58;;;;;;;4.97;0.93;;;13.00;99.90;;;;;;5060772;28;20446;-82
2022/01/03 04:27:26;;;;;;;1.20;0.80;;;12.70;99.90;;;;;;5059315;28;21103;-81
2022/01/03 04:29:56;;;;;;;0.83;0.70;;;12.70;99.90;;;;;;5052424;28;20458;-83
2022/01/03 04:32:24;;;;;;;1.90;0.77;;;12.80;99.90;;;;;;5052178;28;20543;-82
2022/01/03 04:34:52;;;;;;;1.20;0.60;;;12.70;99.90;;;;;;5051172;28;20463;-82
2022/01/03 04:37:21;;;;;;;1.33;0.67;;;12.70;99.90;;;;;;5052743;28;20444;-82
2022/01/03 04:39:49;;;;;;;0.90;0.67;;;12.80;99.90;;;;;;5052229;28;20475;-82
2022/01/03 04:42:17;;;;;;;1.17;0.60;;;12.80;99.90;;;;;;5052701;28;20602;-83
2022/01/03 04:44:45;;;;;;;1.90;0.60;;;12.60;99.90;;;;;;5051086;28;20977;-83
2022/01/03 04:47:15;;;;;;;1.90;0.93;;;12.50;99.90;;;;;;5052391;28;20998;-83
2022/01/03 04:49:47;;;;;;;1.57;0.77;;;12.60;99.90;;;;;;5052082;28;20542;-83
2022/01/03 04:52:16;;;;;;;1.93;0.80;;;12.50;99.90;;;;;;5059023;28;21012;-83
2022/01/03 04:54:44;;;;;;;1.83;0.70;;;12.40;99.90;;;;;;5063715;28;20455;-82
2022/01/03 04:57:12;;;;;;;3.27;0.60;;;12.40;99.90;;;;;;5071863;28;20458;-83
2022/01/03 04:59:40;;;;;;;1.70;0.90;;;12.50;99.90;;;;;;5071078;28;20455;-83
2022/01/03 05:02:09;;;;;;;2.00;0.60;;;12.50;99.90;;;;;;5052315;28;20486;-82
2022/01/03 05:04:38;;;;;;;2.70;2.50;;;12.50;99.90;;;;;;5052035;28;20455;-82
2022/01/03 05:07:06;;;;;;;2.80;0.80;;;12.50;99.90;;;;;;5052095;28;20487;-82
2022/01/03 05:09:35;;;;;;;3.53;0.90;;;12.40;99.90;;;;;;5052898;28;20455;-82
2022/01/03 05:12:03;;;;;;;1.13;1.03;;;12.50;99.90;;;;;;5051623;28;20467;-83
2022/01/03 05:14:32;;;;;;;1.27;0.80;;;12.60;99.90;;;;;;5051254;28;20460;-83
2022/01/03 05:17:01;;;;;;;3.37;0.93;;;12.60;99.90;;;;;;5052115;28;20471;-83
2022/01/03 05:19:29;;;;;;;2.37;0.93;;;12.60;99.90;;;;;;5051519;28;20462;-82
2022/01/03 05:21:59;;;;;;;2.10;0.80;;;12.60;99.90;;;;;;5050196;28;21100;-83
2022/01/03 05:24:27;;;;;;;1.53;0.60;;;12.60;99.90;;;;;;5051919;28;20459;-82
2022/01/03 05:26:56;;;;;;;1.40;0.67;;;12.60;99.90;;;;;;5064475;28;20546;-83
2022/01/03 05:29:24;;;;;;;2.00;0.83;;;12.60;99.90;;;;;;5071029;28;21005;-82
2022/01/03 05:31:52;;;;;;;0.67;0.57;;;12.60;99.90;;;;;;5071346;28;20493;-83
2022/01/03 05:34:21;;;;;;;2.23;1.37;;;12.70;99.90;;;;;;5071308;28;20804;-83
2022/01/03 05:36:49;;;;;;;0.97;0.80;;;12.70;99.90;;;;;;5071933;28;20450;-82
2022/01/03 05:39:19;;;;;;;2.00;0.50;;;12.70;99.90;;;;;;5071279;28;20455;-83
2022/01/03 05:41:47;;;;;;;1.77;0.70;;;12.60;99.90;;;;;;5056249;28;21145;-83
2022/01/03 05:44:15;;;;;;;2.20;0.70;;;12.60;99.90;;;;;;5051228;28;21031;-82
2022/01/03 05:46:43;;;;;;;1.37;0.60;;;12.40;99.90;;;;;;5064483;28;20520;-82
2022/01/03 05:49:12;;;;;;;4.60;0.73;;;12.30;99.90;;;;;;5071124;28;20459;-81
2022/01/03 05:51:40;;;;;;;2.10;1.47;;;12.40;99.90;;;;;;5056049;28;20458;-83
2022/01/03 05:54:08;;;;;;;1.80;0.50;;;12.40;99.90;;;;;;5051221;28;20534;-83
2022/01/03 05:56:38;;;;;;;4.80;0.70;;;12.60;99.90;;;;;;5049845;28;20455;-83
2022/01/03 05:59:07;;;;;;;2.33;0.60;;;12.40;99.90;;;;;;5051307;28;20474;-82
2022/01/03 06:01:36;;;;;;;1.50;0.80;;;12.50;99.90;;;;;;5050730;28;20461;-82
2022/01/03 06:04:15;;;;;;;1.10;0.50;;;12.40;99.90;;;;;;5050700;28;20605;-83
2022/01/03 06:06:54;;;;;;;3.40;0.63;;;12.50;99.90;;;;;;5050795;28;20467;-83
2022/01/03 06:09:24;;;;;;;6.80;0.80;;;12.50;99.90;;;;;;5062534;28;20884;-82
2022/01/03 06:11:54;;;;;;;1.60;0.60;;;12.50;99.90;;;;;;5070066;28;20446;-83
2022/01/03 06:14:23;;;;;;;1.33;0.50;;;12.50;99.90;;;;;;5069738;28;20450;-82
2022/01/03 06:16:52;;;;;;;3.87;0.67;;;12.40;99.90;;;;;;5065927;28;20509;-82
2022/01/03 06:19:21;;;;;;;7.70;2.33;;;12.30;99.90;;;;;;5069771;28;20455;-83
2022/01/03 06:21:49;;;;;;;3.90;0.80;;;12.40;99.90;;;;;;5070303;28;20462;-82
2022/01/03 06:24:19;;;;;;;1.97;0.80;;;12.60;99.90;;;;;;5058240;28;20967;-83
2022/01/03 06:26:47;;;;;;;1.87;0.60;;;12.50;99.90;;;;;;5064303;28;20483;-83
2022/01/03 06:29:19;;;;;;;1.90;0.80;;;12.40;99.90;;;;;;5065186;28;20459;-82
2022/01/03 06:31:48;;;;;;;1.20;0.63;;;12.20;99.90;;;;;;5050352;28;20458;-83
2022/01/03 06:34:18;;;;;;;1.77;0.80;;;12.20;99.90;;;;;;5048851;28;20451;-83
2022/01/03 06:36:46;;;;;;;1.50;0.60;;;12.20;99.90;;;;;;5050879;28;20451;-83
2022/01/03 06:39:14;;;;;;;1.97;0.70;;;12.20;99.90;;;;;;5049353;28;20467;-82
2022/01/03 06:41:43;;;;;;;2.10;0.70;;;12.10;99.90;;;;;;5056324;28;20459;-82
2022/01/03 06:44:11;;;;;;;1.90;0.93;;;12.10;99.90;;;;;;5069954;28;20493;-82
2022/01/03 06:46:41;;;;;;;2.43;1.90;;;12.10;99.90;;;;;;5063942;28;20490;-83
2022/01/03 06:49:09;;;;;;;1.80;0.70;;;12.10;99.90;;;;;;5048994;28;20499;-82
2022/01/03 06:51:38;;;;;;;1.77;1.17;;;12.10;99.90;;;;;;5049596;28;20473;-82
2022/01/03 06:54:10;;;;;;;3.20;0.67;;;12.00;99.90;;;;;;5049981;28;20496;-82
2022/01/03 06:56:39;;;;;;;1.00;0.83;;;12.00;99.90;;;;;;5050304;28;20939;-82
2022/01/03 06:59:08;;;;;;;1.40;1.10;;;11.90;99.90;;;;;;5047697;28;20451;-83
2022/01/03 07:01:36;;;;;;;2.10;0.70;;;11.90;99.90;;;;;;5066230;28;20462;-82
2022/01/03 07:04:06;;;;;;;1.77;0.80;;;11.80;99.90;;;;;;5061039;28;20556;-83
2022/01/03 07:06:36;;;;;;;3.03;0.90;;;11.70;99.90;;;;;;5049694;28;20810;-82
2022/01/03 07:09:06;;;;;;;3.80;0.93;;;11.80;99.90;;;;;;5047528;28;20593;-83
2022/01/03 07:11:35;;;;;;;1.53;0.70;;;11.90;99.90;;;;;;5049646;28;20451;-83
2022/01/03 07:18:56;;;;;;;1.70;0.80;;;11.90;99.90;;;;;;5046339;28;20483;-82
2022/01/03 07:19:56;;;;;;;9.27;1.40;;;11.90;99.90;;;;;;5068032;28;20450;-82
2022/01/03 07:22:26;;;;;;;1.10;0.70;;;11.90;99.90;;;;;;5063448;28;20466;-82
2022/01/03 07:24:55;;;;;;;4.83;0.73;;;11.90;99.90;;;;;;5065583;28;21212;-82
2022/01/03 07:27:23;;;;;;;3.77;1.13;;;11.80;99.90;;;;;;5069760;28;20479;-82
2022/01/03 07:29:53;;;;;;;2.23;0.90;;;11.70;99.90;;;;;;5053218;28;20466;-82
2022/01/03 07:32:21;;;;;;;3.90;0.80;;;11.70;99.90;;;;;;5053720;28;20479;-83
2022/01/03 07:34:49;;;;;;;1.90;0.63;;;11.60;99.90;;;;;;5053352;28;20447;-83
2022/01/03 07:37:19;;;;;;;3.60;0.90;;;11.80;99.90;;;;;;5053460;28;20454;-82
2022/01/03 07:39:48;;;;;;;1.17;0.80;;;11.90;99.90;;;;;;5059022;28;20463;-83
2022/01/03 07:42:16;;;;;;;1.90;1.07;;;11.70;99.90;;;;;;5060791;28;20827;-82
2022/01/03 07:44:44;;;;;;;3.53;1.10;;;11.70;99.90;;;;;;5057612;28;20450;-82
2022/01/03 07:47:12;;;;;;;3.50;0.87;;;11.80;99.90;;;;;;5072043;28;20477;-82
2022/01/03 07:49:40;;;;;;;3.53;0.73;;;11.90;99.90;;;;;;5070714;28;20468;-82
2022/01/03 07:52:09;;;;;;;0.80;0.60;;;11.90;99.90;;;;;;5063682;28;20513;-82
2022/01/03 07:54:38;;;;;;;1.40;0.63;;;11.80;99.90;;;;;;5059830;28;20460;-82
2022/01/03 07:57:06;;;;;;;2.00;1.00;;;11.80;99.90;;;;;;5072977;28;20836;-83
2022/01/03 07:59:35;;;;;;;2.33;0.83;;;12.00;99.90;;;;;;5072020;28;20833;-82
2022/01/03 08:02:03;;;;;;;5.50;1.30;;;12.20;99.90;;;;;;5071747;28;21003;-82
2022/01/03 08:04:32;;;;;;;0.93;0.70;;;12.00;99.90;;;;;;5069002;28;20895;-82
2022/01/03 08:07:01;;;;;;;2.07;0.80;;;12.20;99.90;;;;;;5063586;28;20442;-82
2022/01/03 08:09:29;;;;;;;2.80;0.80;;;12.10;99.90;;;;;;5066679;28;20947;-82
2022/01/03 08:12:00;;;;;;;7.97;1.30;;;12.00;99.90;;;;;;5063477;28;20460;-82
2022/01/03 08:14:28;;;;;;;1.27;0.70;;;12.00;99.90;;;;;;5067733;28;20453;-83
2022/01/03 08:16:57;;;;;;;1.70;0.73;;;11.90;99.90;;;;;;5053128;28;20554;-82
2022/01/03 08:19:25;;;;;;;1.47;0.60;;;11.90;99.90;;;;;;5062987;28;20802;-83
2022/01/03 08:21:53;;;;;;;1.80;0.93;;;11.90;99.90;;;;;;5069176;28;20495;-83
2022/01/03 08:24:21;;;;;;;3.83;0.70;;;11.90;99.90;;;;;;5072941;28;20461;-82
2022/01/03 08:26:50;;;;;;;0.80;0.77;;;11.80;99.90;;;;;;5078940;28;20464;-82
2022/01/03 08:29:19;;;;;;;3.37;0.67;;;11.80;99.90;;;;;;5056219;28;20472;-82
2022/01/03 08:31:48;;;;;;;1.23;0.90;;;11.70;99.90;;;;;;5052781;28;20451;-82
2022/01/03 08:34:16;;;;;;;0.73;0.70;;;11.50;99.90;;;;;;5050913;28;20988;-82
2022/01/03 08:36:45;;;;;;;2.17;0.77;;;11.70;99.90;;;;;;5065963;28;20488;-83
2022/01/03 08:39:13;;;;;;;4.60;0.80;;;11.90;99.90;;;;;;5071915;28;20447;-83
2022/01/03 08:41:41;;;;;;;3.43;0.90;;;11.90;99.90;;;;;;5064634;28;20464;-82
2022/01/03 08:44:10;;;;;;;3.40;0.70;;;11.70;99.90;;;;;;5066984;28;20513;-81
2022/01/03 08:46:40;;;;;;;1.30;0.70;;;11.70;99.90;;;;;;5070843;28;20976;-82
2022/01/03 08:49:08;;;;;;;7.17;1.03;;;12.00;99.90;;;;;;5067040;28;20479;-83
2022/01/03 08:51:37;;;;;;;1.93;0.80;;;11.90;99.90;;;;;;5060811;28;20469;-82
2022/01/03 08:54:05;;;;;;;1.43;0.70;;;12.10;99.90;;;;;;5068026;28;20458;-83
2022/01/03 08:56:33;;;;;;;3.10;1.00;;;12.10;99.90;;;;;;5072120;28;20466;-82
2022/01/03 08:59:02;;;;;;;1.67;0.97;;;12.10;99.90;;;;;;5069503;28;20845;-82
2022/01/03 09:01:30;;;;;;;1.20;0.77;;;12.30;99.90;;;;;;5051639;28;20459;-82
2022/01/03 09:04:00;;;;;;;5.47;0.67;;;12.30;99.90;;;;;;5052056;28;20484;-82
2022/01/03 09:06:28;;;;;;;0.80;0.60;;;12.10;99.90;;;;;;5061011;28;20457;-83
2022/01/03 09:08:57;;;;;;;1.60;0.70;;;12.20;99.90;;;;;;5055279;28;20479;-82
2022/01/03 09:11:30;;;;;;;3.43;0.80;;;12.30;99.90;;;;;;5052189;28;20455;-82
2022/01/03 09:13:58;;;;;;;0.70;0.70;;;12.20;99.90;;;;;;5066153;28;20484;-83
2022/01/03 09:16:27;;;;;;;2.30;0.80;;;12.20;99.90;;;;;;5062171;28;20847;-83
2022/01/03 09:18:55;;;;;;;2.27;0.60;;;12.20;99.90;;;;;;5070161;28;20442;-83
2022/01/03 09:21:25;;;;;;;0.97;0.60;;;12.20;99.90;;;;;;5062012;28;20443;-82
2022/01/03 09:24:18;;;;;;;1.10;0.77;;;12.30;99.90;;;;;;5068406;28;20462;-82
2022/01/03 09:29:33;;;;;;;2.40;0.97;;;12.40;99.90;;;;;;5062877;28;20481;-82
2022/01/03 09:32:01;;;;;;;0.90;0.80;;;12.20;99.90;;;;;;5052031;28;20468;-83
2022/01/03 09:34:29;;;;;;;2.07;0.70;;;12.20;99.90;;;;;;5061165;28;21185;-83
2022/01/03 09:37:00;;;;;;;1.40;0.60;;;12.30;99.90;;;;;;5068626;28;20459;-83
2022/01/03 09:39:29;;;;;;;2.90;0.90;;;12.30;99.90;;;;;;5059680;28;20458;-83
2022/01/03 09:42:02;;;;;;;2.77;0.60;;;12.30;99.90;;;;;;5068048;28;20447;-83
2022/01/03 09:44:32;;;;;;;0.90;0.70;;;12.40;99.90;;;;;;5050232;28;20459;-83
2022/01/03 09:47:03;;;;;;;2.30;0.80;;;12.20;99.90;;;;;;5051145;28;20455;-82
2022/01/03 09:49:35;;;;;;;1.97;0.83;;;12.30;99.90;;;;;;5050459;28;20562;-82
2022/01/03 09:52:08;;;;;;;1.10;0.80;;;12.20;99.90;;;;;;5058742;28;20917;-82
2022/01/03 09:54:38;;;;;;;5.90;1.03;;;12.20;99.90;;;;;;5051034;28;20440;-82
2022/01/03 09:57:06;;;;;;;6.00;0.93;;;12.30;99.90;;;;;;5050911;28;20457;-82
2022/01/03 09:59:36;;;;;;;2.03;0.90;;;12.20;99.90;;;;;;5049988;28;20922;-82
2022/01/03 10:02:05;;;;;;;1.10;0.87;;;12.20;99.90;;;;;;5067255;28;20531;-82
2022/01/03 10:04:36;;;;;;;0.70;0.60;;;12.30;99.90;;;;;;5055548;28;20517;-82
2022/01/03 10:07:10;;;;;;;1.27;0.70;;;12.40;99.90;;;;;;5050469;28;20474;-83
2022/01/03 10:09:39;;;;;;;0.80;0.70;;;12.60;99.90;;;;;;5049544;28;20471;-83
2022/01/03 10:12:11;;;;;;;1.47;0.70;;;12.50;99.90;;;;;;5058894;28;20490;-82
2022/01/03 10:14:39;;;;;;;1.27;0.80;;;12.30;99.90;;;;;;5068905;28;20541;-83
2022/01/03 10:17:08;;;;;;;1.67;0.80;;;12.10;99.90;;;;;;5069596;28;20448;-83
2022/01/03 10:19:51;;;;;;;1.07;0.97;;;12.10;99.90;;;;;;5069424;28;20976;-82
2022/01/03 10:22:23;;;;;;;1.97;0.87;;;12.30;99.90;;;;;;5067795;28;20512;-82
2022/01/03 10:24:52;;;;;;;2.20;0.80;;;12.30;99.90;;;;;;5051371;28;20462;-82
2022/01/03 10:27:20;;;;;;;0.70;0.70;;;12.10;99.90;;;;;;5063657;28;20461;-81
2022/01/03 10:29:56;;;;;;;5.13;1.00;;;12.20;99.90;;;;;;5048939;28;20844;-82
2022/01/03 10:32:29;;;;;;;0.80;0.60;;;12.20;99.90;;;;;;5049640;28;20487;-82
2022/01/03 10:34:59;;;;;;;2.23;0.80;;;12.30;99.90;;;;;;5057304;28;20548;-82
2022/01/03 10:37:38;;;;;;;2.63;0.70;;;12.50;99.90;;;;;;5069906;28;20456;-83
2022/01/03 10:40:18;;;;;;;2.93;0.70;;;12.50;99.90;;;;;;5057404;28;20448;-82
2022/01/03 10:42:47;;;;;;;1.23;0.80;;;12.50;99.90;;;;;;5049839;28;20479;-82
2022/01/03 10:45:26;;;;;;;1.07;0.87;;;12.40;99.90;;;;;;5052902;28;21127;-82
2022/01/03 10:47:55;;;;;;;1.97;0.90;;;12.50;99.90;;;;;;5058321;28;20455;-83
2022/01/03 10:50:24;;;;;;;4.10;1.90;;;12.40;99.90;;;;;;5063557;28;21077;-83
2022/01/03 10:52:55;;;;;;;2.60;0.73;;;12.40;99.90;;;;;;5064898;28;20538;-82
2022/01/03 10:55:29;;;;;;;3.43;0.90;;;12.30;99.90;;;;;;5056419;28;20449;-82
2022/01/03 10:57:59;;;;;;;0.77;0.77;;;12.40;99.90;;;;;;5068774;28;20529;-83
2022/01/03 11:00:30;;;;;;;2.00;0.70;;;12.40;99.90;;;;;;5050805;28;20451;-83
2022/01/03 11:03:28;;;;;;;8.37;1.70;;;12.30;99.90;;;;;;5049406;28;20463;-83
2022/01/03 11:06:08;;;;;;;1.90;0.93;;;12.40;99.90;;;;;;5049085;28;20951;-83
2022/01/03 11:11:36;;;;;;;1.43;0.80;;;12.40;99.90;;;;;;5063691;28;20937;-83
2022/01/03 11:14:04;;;;;;;1.53;0.70;;;12.40;99.90;;;;;;5048352;28;20575;-83
2022/01/03 11:16:33;;;;;;;3.87;1.00;;;12.30;99.90;;;;;;5049653;28;20820;-81
2022/01/03 11:19:03;;;;;;;1.80;0.70;;;12.40;99.90;;;;;;5049001;28;20522;-82
2022/01/03 11:21:33;;;;;;;1.10;0.63;;;12.60;99.90;;;;;;5049451;28;20459;-83
2022/01/03 11:24:11;;;;;;;1.67;0.60;;;12.50;99.90;;;;;;5048921;28;20475;-82
2022/01/03 11:26:46;;;;;;;1.27;0.80;;;12.60;99.90;;;;;;5059913;28;20463;-83
2022/01/03 11:29:15;;;;;;;4.70;0.80;;;12.40;99.90;;;;;;5048999;28;20475;-82
2022/01/03 11:31:44;;;;;;;2.83;0.90;;;12.40;99.90;;;;;;5049634;28;20468;-82
2022/01/03 11:34:13;;;;;;;0.70;0.70;;;12.50;99.90;;;;;;5056292;28;20454;-84
2022/01/03 11:36:58;;;;;;;1.03;0.60;;;12.60;99.90;;;;;;5069572;28;20471;-83
2022/01/03 11:39:32;;;;;;;0.60;0.60;;;12.80;99.90;;;;;;5069055;28;20444;-83
2022/01/03 11:42:01;;;;;;;3.90;0.80;;;12.60;99.90;;;;;;5069358;28;20582;-82
2022/01/03 11:44:30;;;;;;;1.33;0.80;;;12.50;99.90;;;;;;5049198;28;20444;-83
2022/01/03 11:47:00;;;;;;;2.50;0.80;;;12.60;99.90;;;;;;5054382;28;20767;-83
2022/01/03 11:49:29;;;;;;;0.97;0.73;;;12.70;99.90;;;;;;5048522;28;20560;-83
2022/01/03 11:52:01;;;;;;;3.93;0.83;;;12.60;99.90;;;;;;5049091;28;20455;-83
2022/01/03 11:54:31;;;;;;;2.77;0.73;;;12.70;99.90;;;;;;5049153;28;20967;-82
2022/01/03 11:57:13;;;;;;;1.07;0.60;;;12.70;99.90;;;;;;5049249;28;20850;-82
2022/01/03 12:05:48;;;;;;;0.83;0.70;;;13.10;99.90;;;;;;5049593;28;20459;-83
2022/01/03 12:08:25;;;;;;;1.60;0.60;;;13.10;99.90;;;;;;5063768;28;20444;-82
2022/01/03 12:10:55;;;;;;;2.40;0.80;;;13.10;99.90;;;;;;5051294;28;20494;-82
2022/01/03 12:13:47;;;;;;;2.83;1.17;;;13.00;99.90;;;;;;5052454;28;20483;-82
2022/01/03 12:16:16;;;;;;;2.90;0.70;;;12.90;99.90;;;;;;5052880;28;20448;-83
2022/01/03 12:18:59;;;;;;;1.43;0.70;;;13.00;99.90;;;;;;5064993;28;21036;-83
2022/01/03 12:21:49;;;;;;;1.53;0.70;;;13.20;99.90;;;;;;5052768;28;20443;-83
2022/01/03 12:24:54;;;;;;;0.63;0.63;;;13.30;99.90;;;;;;5052293;28;20471;-83
2022/01/03 12:27:30;;;;;;;1.93;0.70;;;13.30;99.90;;;;;;5050871;28;20464;-83
2022/01/03 12:30:25;;;;;;;2.90;0.90;;;13.40;99.90;;;;;;5051589;28;20540;-83
2022/01/03 12:33:17;;;;;;;1.27;0.60;;;13.50;99.90;;;;;;5059881;28;20826;-83
2022/01/03 12:35:48;;;;;;;0.80;0.70;;;13.60;99.90;;;;;;5069310;28;20462;-83
2022/01/03 12:38:28;;;;;;;0.80;0.80;;;13.40;99.90;;;;;;5071518;28;20969;-83
2022/01/03 12:41:02;;;;;;;0.73;0.73;;;13.30;99.90;;;;;;5052868;28;20448;-82
2022/01/03 12:43:58;;;;;;;2.03;0.90;;;13.40;99.90;;;;;;5050931;28;20466;-82
2022/01/03 12:46:26;;;;;;;0.93;0.70;;;13.40;99.90;;;;;;5050196;28;20458;-83
2022/01/03 12:48:56;;;;;;;1.07;0.60;;;13.20;99.90;;;;;;5050770;28;20451;-83
2022/01/03 12:51:38;;;;;;;0.90;0.70;;;13.10;99.90;;;;;;5053018;28;20949;-82
2022/01/03 12:54:07;;;;;;;3.33;1.27;;;12.90;99.90;;;;;;5051756;28;20452;-83
2022/01/03 12:56:37;;;;;;;1.33;1.00;;;12.90;99.90;;;;;;5051856;28;20458;-82
2022/01/03 12:59:15;;;;;;;1.50;1.10;;;13.00;99.90;;;;;;5070815;28;20467;-83
2022/01/03 13:01:43;;;;;;;0.93;0.80;;;13.00;99.90;;;;;;5057645;28;20431;-82
2022/01/03 13:04:26;;;;;;;1.00;0.60;;;12.90;99.90;;;;;;5051544;28;20550;-83
2022/01/03 13:07:04;;;;;;;1.03;0.63;;;12.90;99.90;;;;;;5051311;28;20452;-82
2022/01/03 13:09:32;;;;;;;1.00;0.60;;;13.10;99.90;;;;;;5050566;28;20455;-82
2022/01/03 13:12:05;;;;;;;0.80;0.80;;;13.10;99.90;;;;;;5051173;28;20595;-82
2022/01/03 13:14:35;;;;;;;1.37;1.03;;;12.90;99.90;;;;;;5050642;28;21190;-82
2022/01/03 13:17:04;;;;;;;2.70;0.60;;;12.90;99.90;;;;;;5050390;28;20463;-82
2022/01/03 13:19:33;;;;;;;1.57;0.80;;;12.90;99.90;;;;;;5049902;28;20456;-83
2022/01/03 13:22:05;;;;;;;1.17;0.70;;;12.90;99.90;;;;;;5047662;28;20471;-83
2022/01/03 13:24:35;;;;;;;0.50;0.50;;;12.90;99.90;;;;;;5051567;28;20457;-82